South Florida, Florida
Current Conditions -  °F | °C
As of 10:53 AM on Saturday 25 Oct 2014 (Local Time) from KFLL Reporting Station
Few Clouds Few Clouds  
Wind Chill: 81°   Ceiling: Unl
Heat Index: 82°   Visibility: 10mi
Dew Point: 63°   Wind: 13mph
Humidity: 54%   Direction: 350°N
Pressure: 29.92"   Gusts: 17mph
Location:  26.01°N, 80.15°W
Report Text: KFLL 251453Z 35011G15KT 10SM FEW035 27/17 A2992 RMK AO2 SLP133 T02720172 51009
Loading
Personal Weather Stations






























Interactive Weather Map
Tropical Storm Tracking
New forecast layout! Learn more

10-Day Weather Forecast

Advertisements
Track Severe Weather on mobile